createdAt,value
2019-02-08T00:00:44.436Z,4.90
2019-02-08T00:03:13.879Z,5.00
2019-02-08T00:05:43.320Z,5.10
2019-02-08T00:08:12.873Z,4.60
2019-02-08T00:10:42.588Z,4.20
2019-02-08T00:13:12.108Z,4.23
2019-02-08T00:15:41.730Z,4.50
2019-02-08T00:18:12.630Z,4.50
2019-02-08T00:20:42.105Z,4.20
2019-02-08T00:23:11.495Z,4.70
2019-02-08T00:25:41.313Z,4.17
2019-02-08T00:28:10.815Z,3.60
2019-02-08T00:30:40.247Z,3.80
2019-02-08T00:33:09.745Z,3.70
2019-02-08T00:35:39.267Z,3.47
2019-02-08T00:38:10.169Z,4.00
2019-02-08T00:40:39.747Z,4.30
2019-02-08T00:43:09.425Z,3.90
2019-02-08T00:45:40.073Z,3.43
2019-02-08T00:48:09.428Z,4.00
2019-02-08T00:50:38.788Z,4.17
2019-02-08T00:53:08.268Z,4.03
2019-02-08T00:55:39.479Z,4.20
2019-02-08T00:58:08.863Z,5.03
2019-02-08T01:00:38.301Z,4.13
2019-02-08T01:03:07.763Z,3.47
2019-02-08T01:05:37.122Z,3.93
2019-02-08T01:08:06.727Z,3.60
2019-02-08T01:10:36.090Z,4.37
2019-02-08T01:13:06.121Z,4.50
2019-02-08T01:15:35.492Z,4.67
2019-02-08T01:18:06.167Z,4.77
2019-02-08T01:20:35.977Z,4.40
2019-02-08T01:23:05.801Z,4.90
2019-02-08T01:25:35.267Z,5.30
2019-02-08T01:28:04.781Z,5.70
2019-02-08T01:30:34.711Z,6.53
2019-02-08T01:33:04.629Z,7.13
2019-02-08T01:35:34.173Z,6.13
2019-02-08T01:38:05.165Z,7.40
2019-02-08T01:40:38.982Z,7.67
2019-02-08T01:43:08.893Z,9.87
2019-02-08T01:45:38.446Z,9.70
2019-02-08T01:48:08.869Z,9.03
2019-02-08T01:50:38.330Z,9.40
2019-02-08T01:53:07.831Z,11.27
2019-02-08T01:55:37.209Z,11.73
2019-02-08T01:58:06.629Z,11.23
2019-02-08T02:00:41.430Z,10.33
2019-02-08T02:03:11.235Z,11.50
2019-02-08T02:05:40.948Z,10.93
2019-02-08T02:08:10.394Z,10.67
2019-02-08T02:10:45.160Z,10.30
2019-02-08T02:13:14.612Z,9.90
2019-02-08T02:15:44.116Z,11.50
2019-02-08T02:18:13.803Z,9.87
2019-02-08T02:20:44.048Z,11.30
2019-02-08T02:23:15.152Z,11.20
2019-02-08T02:25:44.649Z,12.07
2019-02-08T02:28:14.272Z,11.20
2019-02-08T02:30:43.710Z,10.37
2019-02-08T02:33:14.034Z,10.70
2019-02-08T02:35:43.831Z,10.60
2019-02-08T02:38:14.127Z,10.77
2019-02-08T02:40:43.558Z,10.00
2019-02-08T02:43:13.012Z,9.87
2019-02-08T02:45:42.825Z,10.77
2019-02-08T02:48:13.458Z,10.13
2019-02-08T02:50:42.925Z,9.50
2019-02-08T02:53:12.584Z,11.07
2019-02-08T02:55:41.916Z,12.40
2019-02-08T02:58:11.355Z,11.23
2019-02-08T03:00:43.346Z,10.77
2019-02-08T03:03:13.247Z,11.90
2019-02-08T03:05:42.872Z,11.43
2019-02-08T03:08:13.772Z,10.63
2019-02-08T03:10:43.401Z,9.53
2019-02-08T03:13:13.305Z,7.93
2019-02-08T03:15:42.789Z,8.77
2019-02-08T03:18:12.543Z,11.00
2019-02-08T03:20:41.931Z,11.40
2019-02-08T03:23:11.531Z,11.10
2019-02-08T03:25:41.086Z,11.90
2019-02-08T03:28:11.895Z,11.40
2019-02-08T03:30:45.768Z,11.03
2019-02-08T03:33:15.168Z,10.27
2019-02-08T03:35:46.200Z,10.93
2019-02-08T03:38:15.666Z,11.40
2019-02-08T03:40:45.032Z,10.03
2019-02-08T03:43:14.676Z,11.03
2019-02-08T03:45:45.750Z,10.80
2019-02-08T03:48:15.181Z,12.20
2019-02-08T03:50:44.670Z,11.30
2019-02-08T03:53:14.087Z,11.57
2019-02-08T03:55:43.478Z,10.67
2019-02-08T03:58:12.847Z,9.33
2019-02-08T04:00:53.097Z,10.07
2019-02-08T04:03:22.621Z,11.27
2019-02-08T04:05:52.069Z,11.30
2019-02-08T04:08:21.522Z,9.73
2019-02-08T04:10:51.046Z,10.13
2019-02-08T04:13:20.502Z,10.87
2019-02-08T04:15:49.954Z,9.73
2019-02-08T04:18:19.330Z,9.03
2019-02-08T04:20:48.725Z,8.97
2019-02-08T04:23:18.178Z,9.07
2019-02-08T04:25:47.649Z,8.80
2019-02-08T04:28:17.132Z,8.87
2019-02-08T04:30:46.514Z,8.20
2019-02-08T04:33:15.909Z,9.20
2019-02-08T04:35:45.275Z,9.20
2019-02-08T04:38:14.653Z,8.80
2019-02-08T04:40:44.015Z,8.30
2019-02-08T04:43:13.371Z,8.83
2019-02-08T04:45:42.755Z,9.03
2019-02-08T04:48:12.113Z,8.10
2019-02-08T04:50:41.479Z,9.90
2019-02-08T04:53:10.865Z,8.63
2019-02-08T04:55:40.322Z,10.93
2019-02-08T04:58:09.681Z,10.57
2019-02-08T05:00:39.204Z,9.77
2019-02-08T05:03:08.557Z,10.33
2019-02-08T05:05:37.931Z,11.07
2019-02-08T05:08:07.326Z,11.03
2019-02-08T05:10:36.763Z,15.60
2019-02-08T05:13:06.488Z,13.67
2019-02-08T05:15:35.863Z,13.57
2019-02-08T05:18:05.291Z,13.47
2019-02-08T05:20:34.797Z,12.67
2019-02-08T05:23:04.353Z,13.07
2019-02-08T05:25:33.761Z,12.37
2019-02-08T05:28:03.142Z,12.20
2019-02-08T05:30:34.662Z,12.33
2019-02-08T05:33:04.981Z,13.50
2019-02-08T05:35:34.587Z,13.50
2019-02-08T05:38:14.122Z,12.93
2019-02-08T05:40:45.172Z,11.73
2019-02-08T05:43:14.575Z,12.13
2019-02-08T05:45:43.931Z,12.40
2019-02-08T05:48:13.301Z,19.57
2019-02-08T05:50:42.683Z,18.00
2019-02-08T05:53:12.044Z,20.70
2019-02-08T05:55:41.418Z,18.60
2019-02-08T05:58:10.830Z,18.93
2019-02-08T06:00:49.495Z,17.10
2019-02-08T06:03:20.317Z,15.10
2019-02-08T06:05:49.962Z,16.37
2019-02-08T06:08:19.540Z,15.43
2019-02-08T06:10:48.983Z,14.83
2019-02-08T06:13:19.587Z,15.33
2019-02-08T06:15:49.038Z,16.90
2019-02-08T06:18:18.495Z,14.60
2019-02-08T06:20:48.026Z,18.27
2019-02-08T06:23:17.523Z,16.33
2019-02-08T06:25:46.961Z,18.00
2019-02-08T06:28:16.354Z,17.53
2019-02-08T06:30:45.796Z,16.67
2019-02-08T06:33:15.284Z,22.33
2019-02-08T06:35:44.943Z,20.17
2019-02-08T06:38:16.187Z,20.90
2019-02-08T06:40:46.978Z,16.70
2019-02-08T06:43:16.424Z,16.80
2019-02-08T06:45:45.869Z,15.63
2019-02-08T06:48:15.329Z,13.47
2019-02-08T06:50:44.776Z,16.13
2019-02-08T06:53:14.238Z,16.93
2019-02-08T06:55:43.769Z,17.07
2019-02-08T06:58:20.821Z,14.80
2019-02-08T07:00:59.486Z,15.37
2019-02-08T07:03:30.576Z,14.83
2019-02-08T07:06:01.593Z,15.23
2019-02-08T07:08:38.707Z,13.87
2019-02-08T07:11:24.818Z,15.23
2019-02-08T07:14:06.252Z,13.47
2019-02-08T07:16:55.367Z,13.30
2019-02-08T07:19:26.457Z,13.63
2019-02-08T07:22:13.357Z,13.27
2019-02-08T07:24:44.395Z,12.93
2019-02-08T07:27:20.865Z,12.07
2019-02-08T07:30:03.832Z,11.97
2019-02-08T07:32:34.825Z,12.03
2019-02-08T07:35:26.198Z,12.13
2019-02-08T07:38:03.126Z,11.00
2019-02-08T07:40:37.219Z,11.20
2019-02-08T07:43:17.883Z,11.60
2019-02-08T07:45:49.861Z,11.60
2019-02-08T07:48:27.803Z,11.67
2019-02-08T07:51:15.176Z,11.73
2019-02-08T07:53:48.903Z,13.13
2019-02-08T07:56:26.905Z,11.47
2019-02-08T07:59:12.963Z,14.33
2019-02-08T08:01:44.073Z,16.53
2019-02-08T08:04:17.817Z,22.17
2019-02-08T08:07:02.216Z,16.33
2019-02-08T08:09:39.339Z,15.33
2019-02-08T08:12:27.926Z,8.67
2019-02-08T08:15:00.759Z,8.13
2019-02-08T08:17:49.724Z,7.10
2019-02-08T08:20:26.507Z,7.90
2019-02-08T08:22:59.471Z,7.90
2019-02-08T08:25:36.772Z,7.10
2019-02-08T08:28:24.248Z,6.97
2019-02-08T08:31:13.301Z,5.73
2019-02-08T08:33:45.768Z,6.10
2019-02-08T08:36:32.729Z,6.33
2019-02-08T08:39:07.764Z,6.13
2019-02-08T08:41:44.551Z,5.80
2019-02-08T08:44:35.022Z,5.83
2019-02-08T08:47:41.805Z,6.27
2019-02-08T08:50:17.153Z,25.23
2019-02-08T08:52:55.408Z,29.67
2019-02-08T08:55:47.004Z,7.17
2019-02-08T08:58:24.950Z,5.77
2019-02-08T09:01:03.290Z,5.87
2019-02-08T09:03:41.358Z,5.53
2019-02-08T09:06:45.098Z,5.57
2019-02-08T09:09:32.360Z,5.93
2019-02-08T09:12:16.404Z,6.97
2019-02-08T09:14:57.654Z,5.20
2019-02-08T09:17:41.953Z,5.37
2019-02-08T09:20:33.670Z,5.10
2019-02-08T09:23:28.406Z,5.20
2019-02-08T09:26:06.419Z,5.90
2019-02-08T09:28:38.880Z,5.47
2019-02-08T09:31:27.963Z,5.13
2019-02-08T09:34:14.860Z,4.67
2019-02-08T09:36:52.916Z,5.00
2019-02-08T09:39:30.957Z,6.17
2019-02-08T09:42:30.243Z,4.73
2019-02-08T09:45:02.686Z,5.27
2019-02-08T09:47:49.977Z,4.87
2019-02-08T09:50:45.067Z,5.50
2019-02-08T09:53:26.212Z,5.77
2019-02-08T09:56:23.937Z,8.70
2019-02-08T09:58:59.089Z,4.70
2019-02-08T10:01:37.448Z,4.63
2019-02-08T10:04:27.928Z,5.83
2019-02-08T10:07:19.617Z,6.40
2019-02-08T10:10:09.965Z,4.70
2019-02-08T10:13:10.970Z,5.30
2019-02-08T10:16:01.106Z,4.60
2019-02-08T10:18:52.907Z,4.40
2019-02-08T10:22:01.286Z,5.00
2019-02-08T10:25:06.132Z,4.13
2019-02-08T10:27:47.010Z,4.20
2019-02-08T10:30:28.158Z,3.70
2019-02-08T10:33:20.105Z,4.30
2019-02-08T10:36:17.931Z,4.13
2019-02-08T10:39:08.512Z,4.27
2019-02-08T10:42:00.283Z,4.23
2019-02-08T10:44:56.609Z,4.47
2019-02-08T10:47:48.196Z,4.37
2019-02-08T10:50:48.657Z,3.13
2019-02-08T10:53:29.791Z,3.20
2019-02-08T10:56:15.019Z,3.43
2019-02-08T10:59:02.939Z,3.30
2019-02-08T11:01:57.833Z,3.83
2019-02-08T11:04:31.319Z,3.00
2019-02-08T11:07:09.555Z,3.47
2019-02-08T11:09:56.867Z,3.07
2019-02-08T11:12:54.130Z,3.50
2019-02-08T11:15:54.873Z,4.30
2019-02-08T11:18:44.905Z,3.20
2019-02-08T11:21:14.189Z,3.60
2019-02-08T11:23:43.556Z,3.40
2019-02-08T11:26:13.011Z,3.63
2019-02-08T11:28:42.557Z,3.30
2019-02-08T11:31:12.642Z,3.60
2019-02-08T11:33:42.081Z,3.20
2019-02-08T11:36:11.711Z,3.30
2019-02-08T11:38:41.150Z,2.90
2019-02-08T11:41:12.072Z,3.17
2019-02-08T11:43:41.512Z,3.07
2019-02-08T11:46:11.010Z,3.20
2019-02-08T11:48:40.526Z,3.70
2019-02-08T11:51:10.192Z,3.93
2019-02-08T11:53:39.614Z,3.60
2019-02-08T11:56:09.236Z,3.20
2019-02-08T11:58:38.587Z,3.37
2019-02-08T12:01:08.107Z,3.40
2019-02-08T12:03:37.483Z,2.93
2019-02-08T12:06:07.008Z,2.63
2019-02-08T12:08:36.402Z,2.80
2019-02-08T12:11:06.003Z,3.20
2019-02-08T12:13:35.498Z,4.10
2019-02-08T12:16:05.179Z,2.97
2019-02-08T12:18:34.672Z,3.27
2019-02-08T12:21:04.162Z,3.30
2019-02-08T12:23:33.609Z,3.90
2019-02-08T12:26:04.029Z,3.37
2019-02-08T12:28:33.390Z,2.90
2019-02-08T12:31:02.761Z,2.90
2019-02-08T12:33:32.152Z,3.67
2019-02-08T12:36:01.520Z,2.73
2019-02-08T12:38:30.901Z,2.97
2019-02-08T12:41:00.288Z,3.40
2019-02-08T12:43:29.579Z,2.73
2019-02-08T12:45:59.311Z,3.43
2019-02-08T12:48:28.660Z,2.73
2019-02-08T12:50:58.120Z,4.27
2019-02-08T12:53:27.489Z,3.07
2019-02-08T12:55:56.885Z,3.40
2019-02-08T12:58:26.721Z,2.83
2019-02-08T13:00:56.206Z,3.10
2019-02-08T13:03:25.551Z,4.53
2019-02-08T13:05:54.949Z,2.90
2019-02-08T13:08:24.315Z,5.23
2019-02-08T13:10:53.687Z,3.40
2019-02-08T13:13:23.098Z,3.10
2019-02-08T13:15:52.518Z,2.60
2019-02-08T13:18:24.840Z,3.80
2019-02-08T13:20:54.351Z,2.50
2019-02-08T13:23:23.703Z,16.20
2019-02-08T13:25:53.311Z,2.43
2019-02-08T13:28:22.662Z,3.07
2019-02-08T13:30:52.060Z,2.50
2019-02-08T13:33:21.428Z,2.83
2019-02-08T13:35:50.794Z,2.67
2019-02-08T13:38:20.158Z,2.50
2019-02-08T13:40:49.675Z,2.90
2019-02-08T13:43:19.262Z,2.83
2019-02-08T13:45:50.160Z,3.00
2019-02-08T13:48:21.335Z,2.33
2019-02-08T13:50:50.884Z,2.80
2019-02-08T13:53:22.055Z,2.37
2019-02-08T13:55:51.944Z,2.80
2019-02-08T13:58:21.345Z,2.90
2019-02-08T14:00:50.777Z,2.57
2019-02-08T14:03:21.788Z,2.40
2019-02-08T14:05:52.891Z,2.50
2019-02-08T14:08:22.275Z,2.20
2019-02-08T14:10:51.648Z,2.10
2019-02-08T14:13:31.096Z,5.33
2019-02-08T14:16:00.522Z,10.63
2019-02-08T14:18:29.851Z,10.07
2019-02-08T14:20:59.249Z,6.97
2019-02-08T14:23:28.653Z,2.30
2019-02-08T14:25:58.042Z,3.93
2019-02-08T14:28:27.563Z,2.60
2019-02-08T14:30:56.999Z,6.33
2019-02-08T14:33:26.365Z,7.63
2019-02-08T14:35:56.042Z,6.93
2019-02-08T14:38:25.453Z,2.50
2019-02-08T14:40:54.720Z,2.37
2019-02-08T14:43:24.180Z,2.70
2019-02-08T14:45:53.699Z,4.10
2019-02-08T14:48:23.092Z,2.93
2019-02-08T14:50:52.560Z,2.87
2019-02-08T14:53:21.957Z,2.37
2019-02-08T14:55:51.304Z,2.60
2019-02-08T14:58:20.751Z,2.87
2019-02-08T15:00:50.189Z,3.13
2019-02-08T15:03:19.578Z,2.80
2019-02-08T15:05:48.995Z,2.80
2019-02-08T15:08:18.361Z,3.67
2019-02-08T15:10:50.591Z,11.13
2019-02-08T15:13:20.019Z,2.77
2019-02-08T15:15:49.381Z,2.60
2019-02-08T15:18:18.832Z,3.43
2019-02-08T15:20:48.271Z,2.93
2019-02-08T15:23:17.717Z,2.93
2019-02-08T15:25:47.130Z,3.03
2019-02-08T15:28:17.072Z,3.63
2019-02-08T15:30:46.564Z,3.60
2019-02-08T15:33:15.922Z,3.33
2019-02-08T15:35:45.379Z,6.43
2019-02-08T15:38:14.841Z,5.27
2019-02-08T15:40:47.138Z,4.50
2019-02-08T15:43:18.824Z,3.13
2019-02-08T15:45:51.619Z,2.70
2019-02-08T15:48:21.085Z,3.30
2019-02-08T15:50:51.085Z,3.03
2019-02-08T15:53:20.440Z,3.33
2019-02-08T15:55:55.569Z,3.57
2019-02-08T15:58:25.023Z,3.00
2019-02-08T16:00:54.451Z,2.43
2019-02-08T16:03:23.796Z,3.00
2019-02-08T16:05:53.273Z,2.63
2019-02-08T16:08:22.622Z,5.27
2019-02-08T16:10:52.347Z,2.77
2019-02-08T16:13:21.811Z,2.17
2019-02-08T16:15:51.161Z,2.07
2019-02-08T16:18:21.811Z,1.90
2019-02-08T16:20:51.327Z,2.37
2019-02-08T16:23:20.675Z,2.40
2019-02-08T16:25:51.277Z,4.07
2019-02-08T16:28:20.830Z,3.43
2019-02-08T16:30:50.177Z,2.37
2019-02-08T16:33:19.542Z,2.27
2019-02-08T16:35:48.894Z,2.60
2019-02-08T16:38:18.358Z,2.30
2019-02-08T16:40:49.390Z,3.40
2019-02-08T16:43:18.947Z,2.97
2019-02-08T16:45:50.491Z,2.40
2019-02-08T16:48:20.128Z,3.40
2019-02-08T16:50:49.571Z,3.47
2019-02-08T16:53:18.924Z,2.63
2019-02-08T16:55:48.725Z,3.00
2019-02-08T16:58:18.081Z,2.63
2019-02-08T17:00:47.662Z,2.63
2019-02-08T17:03:17.109Z,2.60
2019-02-08T17:05:46.471Z,3.50
2019-02-08T17:08:15.842Z,3.47
2019-02-08T17:10:45.313Z,2.53
2019-02-08T17:13:14.841Z,3.33
2019-02-08T17:15:44.292Z,3.00
2019-02-08T17:18:13.736Z,3.40
2019-02-08T17:20:46.116Z,3.00
2019-02-08T17:23:15.653Z,2.70
2019-02-08T17:25:45.060Z,2.30
2019-02-08T17:28:14.577Z,15.07
2019-02-08T17:30:43.951Z,6.77
2019-02-08T17:33:13.314Z,7.40
2019-02-08T17:35:42.688Z,4.20
2019-02-08T17:38:12.124Z,3.20
2019-02-08T17:40:44.371Z,3.20
2019-02-08T17:43:13.792Z,3.40
2019-02-08T17:45:43.299Z,4.10
2019-02-08T17:48:15.893Z,3.83
2019-02-08T17:50:45.328Z,3.30
2019-02-08T17:53:16.077Z,3.73
2019-02-08T17:55:45.445Z,4.03
2019-02-08T17:58:14.811Z,2.83
2019-02-08T18:00:52.965Z,3.87
2019-02-08T18:03:22.322Z,3.00
2019-02-08T18:05:51.718Z,3.33
2019-02-08T18:08:21.072Z,3.30
2019-02-08T18:10:50.434Z,4.30
2019-02-08T18:13:19.834Z,3.50
2019-02-08T18:15:49.203Z,3.50
2019-02-08T18:18:18.620Z,4.07
2019-02-08T18:20:50.774Z,3.43
2019-02-08T18:23:21.056Z,2.93
2019-02-08T18:25:50.436Z,3.30
2019-02-08T18:28:19.871Z,3.43
2019-02-08T18:30:49.325Z,3.33
2019-02-08T18:33:18.724Z,3.90
2019-02-08T18:35:48.102Z,4.50
2019-02-08T18:38:17.470Z,4.50
2019-02-08T18:40:46.979Z,4.50
2019-02-08T18:43:16.343Z,4.17
2019-02-08T18:45:45.896Z,4.97
2019-02-08T18:48:15.391Z,5.33
2019-02-08T18:50:50.258Z,4.90
2019-02-08T18:53:19.676Z,8.63
2019-02-08T18:55:49.171Z,30.83
2019-02-08T18:58:19.484Z,12.23
2019-02-08T19:00:53.669Z,9.87
2019-02-08T19:03:24.013Z,8.43
2019-02-08T19:05:53.429Z,6.30
2019-02-08T19:08:22.894Z,4.90
2019-02-08T19:10:52.255Z,4.07
2019-02-08T19:13:21.725Z,3.00
2019-02-08T19:15:51.215Z,3.47
2019-02-08T19:18:20.719Z,3.23
2019-02-08T19:20:50.169Z,3.80
2019-02-08T19:23:22.639Z,3.00
2019-02-08T19:25:52.091Z,3.03
2019-02-08T19:28:26.271Z,2.90
2019-02-08T19:30:52.683Z,4.17
2019-02-08T19:33:22.148Z,3.30
2019-02-08T19:35:53.331Z,4.00
2019-02-08T19:38:22.788Z,5.13
2019-02-08T19:40:52.589Z,6.57
2019-02-08T19:43:22.494Z,4.60
2019-02-08T19:45:52.190Z,7.20
2019-02-08T19:48:23.243Z,3.20
2019-02-08T19:50:52.989Z,4.80
2019-02-08T19:53:22.426Z,4.87
2019-02-08T19:55:51.871Z,3.80
2019-02-08T19:58:21.341Z,4.70
2019-02-08T20:00:50.880Z,7.07
2019-02-08T20:03:20.404Z,15.90
2019-02-08T20:05:49.891Z,8.53
2019-02-08T20:08:20.899Z,9.20
2019-02-08T20:10:50.810Z,5.40
2019-02-08T20:13:21.814Z,8.70
2019-02-08T20:15:51.289Z,6.57
2019-02-08T20:18:20.675Z,13.43
2019-02-08T20:20:51.710Z,4.97
2019-02-08T20:23:21.483Z,3.30
2019-02-08T20:25:52.614Z,8.77
2019-02-08T20:28:21.998Z,9.80
2019-02-08T20:30:51.409Z,9.53
2019-02-08T20:33:20.901Z,4.17
2019-02-08T20:35:50.390Z,3.57
2019-02-08T20:38:19.843Z,7.47
2019-02-08T20:40:51.160Z,4.87
2019-02-08T20:43:20.608Z,3.30
2019-02-08T20:45:50.103Z,2.63
2019-02-08T20:48:21.723Z,2.23
2019-02-08T20:50:53.760Z,3.20
2019-02-08T20:53:23.680Z,3.30
2019-02-08T20:55:53.305Z,3.13
2019-02-08T20:58:24.292Z,2.73
2019-02-08T21:00:53.816Z,3.17
2019-02-08T21:03:23.650Z,3.10
2019-02-08T21:05:53.285Z,51.43
2019-02-08T21:08:22.732Z,11.73
2019-02-08T21:10:52.260Z,9.57
2019-02-08T21:13:21.735Z,4.10
2019-02-08T21:15:51.149Z,3.70
2019-02-08T21:18:20.883Z,4.13
2019-02-08T21:20:50.199Z,2.93
2019-02-08T21:23:20.904Z,3.40
2019-02-08T21:25:51.824Z,3.10
2019-02-08T21:28:21.510Z,2.30
2019-02-08T21:30:50.937Z,3.43
2019-02-08T21:33:20.310Z,3.33
2019-02-08T21:35:49.725Z,3.60
2019-02-08T21:38:19.310Z,2.50
2019-02-08T21:40:48.861Z,2.30
2019-02-08T21:43:18.583Z,2.73
2019-02-08T21:45:48.066Z,2.40
2019-02-08T21:48:17.790Z,2.53
2019-02-08T21:50:47.226Z,2.70
2019-02-08T21:53:16.768Z,2.50
2019-02-08T21:55:46.929Z,2.17
2019-02-08T21:58:17.925Z,2.30
2019-02-08T22:00:47.581Z,2.20
2019-02-08T22:03:17.967Z,2.53
2019-02-08T22:05:50.816Z,2.30
2019-02-08T22:08:20.284Z,2.27
2019-02-08T22:10:49.768Z,2.50
2019-02-08T22:13:19.215Z,2.00
2019-02-08T22:15:48.535Z,2.40
2019-02-08T22:18:17.917Z,2.73
2019-02-08T22:20:47.347Z,2.57
2019-02-08T22:23:16.817Z,2.33
2019-02-08T22:25:46.316Z,2.20
2019-02-08T22:28:16.812Z,2.60
2019-02-08T22:30:48.044Z,2.40
2019-02-08T22:33:18.132Z,2.00
2019-02-08T22:35:47.554Z,2.80
2019-02-08T22:38:17.008Z,2.60
2019-02-08T22:40:46.538Z,2.57
2019-02-08T22:43:15.966Z,2.57
2019-02-08T22:45:45.508Z,3.33
2019-02-08T22:48:14.878Z,2.40
2019-02-08T22:50:44.337Z,2.20
2019-02-08T22:53:14.210Z,2.40
2019-02-08T22:55:43.591Z,2.57
2019-02-08T22:58:12.945Z,2.60
2019-02-08T23:00:54.423Z,2.50
2019-02-08T23:03:23.802Z,2.50
2019-02-08T23:05:53.186Z,2.67
2019-02-08T23:08:22.622Z,2.40
2019-02-08T23:10:52.137Z,2.40
2019-02-08T23:13:21.510Z,2.10
2019-02-08T23:15:51.009Z,2.00
2019-02-08T23:18:20.395Z,2.00
2019-02-08T23:20:49.814Z,2.43
2019-02-08T23:23:19.711Z,14.80
2019-02-08T23:25:49.084Z,29.77
2019-02-08T23:28:18.462Z,14.77
2019-02-08T23:30:47.829Z,3.37
2019-02-08T23:33:17.276Z,3.30
2019-02-08T23:35:46.706Z,2.77
2019-02-08T23:38:16.078Z,10.07
2019-02-08T23:40:46.996Z,3.37
2019-02-08T23:43:16.363Z,2.70
2019-02-08T23:45:46.016Z,2.50
2019-02-08T23:48:15.383Z,2.83
2019-02-08T23:50:44.753Z,2.90
2019-02-08T23:53:14.103Z,2.60
2019-02-08T23:55:43.488Z,3.27
2019-02-08T23:58:12.850Z,4.37
